Time;durP1;ratioP1;P1;durP2;ratioP2;P2;SDS_P1;SDS_P2;PMS_P1;PMS_P2;Temp;Humidity;BMP_temperature;BMP_pressure;BME280_temperature;BME280_humidity;BME280_pressure;Samples;Min_cycle;Max_cycle;Signal;HPM_P1;HPM_P2
2022/03/11 00:00:45;;;;;;;5.93;3.03;;;6.30;32.10;;;;;;4914577;29;20488;-79
2022/03/11 00:03:12;;;;;;;7.25;2.80;;;6.20;32.00;;;;;;4899908;29;20028;-79
2022/03/11 00:05:39;;;;;;;5.97;2.72;;;6.20;32.00;;;;;;4898200;29;20048;-80
2022/03/11 00:08:05;;;;;;;5.80;2.72;;;6.20;32.10;;;;;;4898821;28;20041;-80
2022/03/11 00:10:32;;;;;;;6.55;3.20;;;6.20;32.10;;;;;;4900060;29;20493;-79
2022/03/11 00:12:58;;;;;;;5.47;3.55;;;6.20;32.10;;;;;;4913721;29;20028;-79
2022/03/11 00:15:24;;;;;;;5.18;2.90;;;6.20;32.10;;;;;;4883742;29;20384;-79
2022/03/11 00:17:51;;;;;;;5.80;3.13;;;6.20;32.20;;;;;;4898432;29;20516;-78
2022/03/11 00:20:20;;;;;;;5.10;3.35;;;6.20;32.30;;;;;;4914246;29;20183;-78
2022/03/11 00:22:51;;;;;;;7.60;3.20;;;6.10;32.30;;;;;;4901643;29;20499;-78
2022/03/11 00:25:19;;;;;;;5.57;3.08;;;6.10;32.30;;;;;;4904180;29;20099;-76
2022/03/11 00:27:45;;;;;;;7.25;3.35;;;6.10;32.30;;;;;;4901898;29;20041;-78
2022/03/11 00:30:12;;;;;;;7.22;3.45;;;6.10;32.30;;;;;;4903671;29;20095;-78
2022/03/11 00:32:38;;;;;;;6.50;3.45;;;6.10;32.40;;;;;;4886494;29;20076;-77
2022/03/11 00:35:08;;;;;;;7.18;3.13;;;6.10;32.30;;;;;;4891476;29;20077;-79
2022/03/11 00:37:38;;;;;;;9.32;4.50;;;6.10;32.30;;;;;;4902777;29;20551;-77
2022/03/11 00:40:05;;;;;;;5.53;3.35;;;6.20;32.30;;;;;;4904322;29;20500;-77
2022/03/11 00:42:31;;;;;;;6.22;3.67;;;6.20;32.30;;;;;;4918509;29;20504;-77
2022/03/11 00:44:57;;;;;;;8.35;3.58;;;6.20;32.80;;;;;;4903647;29;20043;-76
2022/03/11 00:47:23;;;;;;;4.82;3.13;;;6.20;32.20;;;;;;4902547;28;20423;-77
2022/03/11 00:49:49;;;;;;;6.65;3.58;;;6.20;32.10;;;;;;4917335;29;20365;-78
2022/03/11 00:52:15;;;;;;;4.90;3.78;;;6.20;32.10;;;;;;4902442;29;20067;-77
2022/03/11 00:54:41;;;;;;;6.80;3.30;;;6.30;32.10;;;;;;4903881;29;20460;-77
2022/03/11 00:57:07;;;;;;;7.13;3.72;;;6.20;32.00;;;;;;4902080;29;20362;-78
2022/03/11 00:59:33;;;;;;;8.40;3.60;;;6.30;32.10;;;;;;4915960;29;20084;-78
2022/03/11 01:01:58;;;;;;;5.38;3.30;;;6.20;32.00;;;;;;4902727;29;20036;-77
2022/03/11 01:04:25;;;;;;;6.60;3.20;;;6.20;32.00;;;;;;4901538;28;20048;-79
2022/03/11 01:06:51;;;;;;;7.22;2.97;;;6.20;32.00;;;;;;4902617;29;20389;-78
2022/03/11 01:09:17;;;;;;;6.90;3.58;;;6.20;32.00;;;;;;4887008;29;20036;-78
2022/03/11 01:11:43;;;;;;;5.90;3.53;;;6.20;32.60;;;;;;4903342;29;20586;-78
2022/03/11 01:14:09;;;;;;;6.50;3.05;;;6.20;32.00;;;;;;4901629;29;20571;-78
2022/03/11 01:16:35;;;;;;;6.85;3.13;;;6.10;32.00;;;;;;4900640;29;20076;-78
2022/03/11 01:19:02;;;;;;;5.35;3.17;;;6.10;32.00;;;;;;4902652;29;20036;-78
2022/03/11 01:21:27;;;;;;;5.07;3.05;;;6.10;32.10;;;;;;4890698;29;20075;-77
2022/03/11 01:23:53;;;;;;;7.22;3.25;;;6.10;32.10;;;;;;4903515;28;20518;-76
2022/03/11 01:26:20;;;;;;;5.57;3.15;;;6.10;32.10;;;;;;4902871;29;20104;-77
2022/03/11 01:28:46;;;;;;;5.47;3.13;;;6.10;32.10;;;;;;4905673;29;20378;-79
2022/03/11 01:31:12;;;;;;;8.40;3.72;;;6.00;32.10;;;;;;4902273;29;20076;-77
2022/03/11 01:33:43;;;;;;;6.22;3.65;;;6.10;32.10;;;;;;4900951;29;20048;-79
2022/03/11 01:36:10;;;;;;;6.10;3.72;;;6.10;32.20;;;;;;4902297;29;20547;-78
2022/03/11 01:38:36;;;;;;;6.25;3.80;;;6.10;32.20;;;;;;4901276;29;20108;-79
2022/03/11 01:41:03;;;;;;;7.13;4.13;;;6.10;32.10;;;;;;4902975;29;20143;-78
2022/03/11 01:43:29;;;;;;;6.22;3.33;;;6.20;32.10;;;;;;4902000;29;20048;-77
2022/03/11 01:45:59;;;;;;;9.10;3.75;;;6.20;32.10;;;;;;4916410;29;20040;-78
2022/03/11 01:48:26;;;;;;;7.13;3.50;;;6.20;32.00;;;;;;4916026;29;20040;-77
2022/03/11 01:50:51;;;;;;;7.20;3.42;;;6.20;32.00;;;;;;4903622;29;20043;-77
2022/03/11 01:53:18;;;;;;;6.30;3.15;;;6.20;32.00;;;;;;4902079;28;20036;-78
2022/03/11 01:55:44;;;;;;;6.07;3.45;;;6.20;31.90;;;;;;4917062;29;20047;-77
2022/03/11 01:58:11;;;;;;;7.45;3.75;;;6.30;32.10;;;;;;4901205;29;20036;-77
2022/03/11 02:00:40;;;;;;;8.45;3.85;;;6.20;32.00;;;;;;4915359;29;20047;-79
2022/03/11 02:03:10;;;;;;;7.30;3.40;;;6.20;32.00;;;;;;4932431;29;20127;-79
2022/03/11 02:05:35;;;;;;;6.50;3.28;;;6.20;32.00;;;;;;4902416;29;20071;-77
2022/03/11 02:08:02;;;;;;;5.32;3.30;;;6.20;32.00;;;;;;4916711;29;20056;-79
2022/03/11 02:10:30;;;;;;;7.00;3.78;;;6.20;32.60;;;;;;4902465;29;20046;-79
2022/03/11 02:12:57;;;;;;;7.13;3.40;;;6.20;32.10;;;;;;4916711;29;20606;-79
2022/03/11 02:15:24;;;;;;;8.50;3.72;;;6.10;32.10;;;;;;4901573;29;20040;-78
2022/03/11 02:17:50;;;;;;;6.28;3.65;;;6.10;32.10;;;;;;4901061;29;20468;-79
2022/03/11 02:20:16;;;;;;;7.55;4.05;;;6.10;32.10;;;;;;4901104;29;20037;-78
2022/03/11 02:22:43;;;;;;;7.30;3.95;;;6.10;32.10;;;;;;4901886;29;20036;-78
2022/03/11 02:25:09;;;;;;;7.60;3.88;;;6.10;32.20;;;;;;4899099;29;20041;-79
2022/03/11 02:27:42;;;;;;;6.40;4.00;;;6.10;32.20;;;;;;4900714;29;20029;-78
2022/03/11 02:30:13;;;;;;;7.13;4.13;;;6.10;32.20;;;;;;4899637;29;20132;-77
2022/03/11 02:32:40;;;;;;;7.97;4.47;;;6.10;32.20;;;;;;4901569;29;20045;-79
2022/03/11 02:35:07;;;;;;;8.43;4.13;;;6.20;32.20;;;;;;4899622;29;20032;-77
2022/03/11 02:37:33;;;;;;;13.02;4.20;;;6.20;32.10;;;;;;4930409;29;20521;-79
2022/03/11 02:39:58;;;;;;;6.40;4.10;;;6.20;32.10;;;;;;4902096;29;20072;-78
2022/03/11 02:42:24;;;;;;;9.80;4.20;;;6.20;32.10;;;;;;4901314;29;20034;-78
2022/03/11 02:44:50;;;;;;;9.18;4.35;;;6.30;32.10;;;;;;4901155;29;20037;-76
2022/03/11 02:47:16;;;;;;;9.07;4.43;;;6.30;32.10;;;;;;4884116;29;20059;-76
2022/03/11 02:49:42;;;;;;;9.23;4.57;;;6.30;32.10;;;;;;4900798;29;20040;-77
2022/03/11 02:52:08;;;;;;;10.27;4.50;;;6.30;32.00;;;;;;4900027;29;20212;-78
2022/03/11 02:54:34;;;;;;;9.82;4.93;;;6.30;32.00;;;;;;4901082;29;20036;-78
2022/03/11 02:57:00;;;;;;;8.95;4.57;;;6.30;32.00;;;;;;4900795;29;20095;-78
2022/03/11 02:59:26;;;;;;;9.32;4.57;;;6.20;31.90;;;;;;4900425;29;20032;-78
2022/03/11 03:01:52;;;;;;;8.23;4.80;;;6.20;31.90;;;;;;4901128;29;20071;-78
2022/03/11 03:04:18;;;;;;;8.65;4.70;;;6.20;32.00;;;;;;4899902;29;20039;-78
2022/03/11 03:06:44;;;;;;;9.15;4.43;;;6.20;32.00;;;;;;4913923;29;20401;-79
2022/03/11 03:09:10;;;;;;;10.45;4.78;;;6.10;32.00;;;;;;4900967;29;20036;-79
2022/03/11 03:11:36;;;;;;;7.90;4.78;;;6.20;32.00;;;;;;4900095;29;20112;-79
2022/03/11 03:14:02;;;;;;;9.13;4.35;;;6.10;32.00;;;;;;4904059;29;20104;-79
2022/03/11 03:16:29;;;;;;;8.27;4.60;;;6.10;32.10;;;;;;4898554;29;20060;-78
2022/03/11 03:18:55;;;;;;;13.57;4.88;;;6.10;32.10;;;;;;4915494;29;20178;-79
2022/03/11 03:21:22;;;;;;;7.70;4.53;;;6.10;32.10;;;;;;4901424;29;20059;-79
2022/03/11 03:23:48;;;;;;;8.00;4.00;;;6.10;32.10;;;;;;4914534;29;20060;-78
2022/03/11 03:26:14;;;;;;;7.05;4.05;;;6.10;32.10;;;;;;4899846;29;20092;-78
2022/03/11 03:28:40;;;;;;;9.65;4.20;;;6.10;32.00;;;;;;4900472;29;20403;-79
2022/03/11 03:31:08;;;;;;;5.88;3.83;;;6.20;32.00;;;;;;4900451;29;20530;-78
2022/03/11 03:33:33;;;;;;;7.47;3.63;;;6.20;32.00;;;;;;4901603;29;20114;-77
2022/03/11 03:35:59;;;;;;;7.20;3.85;;;6.20;32.00;;;;;;4898730;29;20127;-79
2022/03/11 03:38:25;;;;;;;6.53;3.72;;;6.30;32.00;;;;;;4903334;29;20100;-78
2022/03/11 03:40:51;;;;;;;5.70;3.33;;;6.30;32.00;;;;;;4914901;29;20048;-83
2022/03/11 03:43:18;;;;;;;6.50;3.45;;;6.30;32.10;;;;;;4899814;29;20045;-82
2022/03/11 03:45:44;;;;;;;8.85;4.00;;;6.40;32.20;;;;;;4902792;29;20036;-83
2022/03/11 03:48:10;;;;;;;6.45;3.80;;;6.40;32.30;;;;;;4914410;29;20155;-82
2022/03/11 03:50:36;;;;;;;7.95;4.03;;;6.40;32.30;;;;;;4899140;29;20155;-82
2022/03/11 03:53:02;;;;;;;6.10;3.67;;;6.40;32.30;;;;;;4898864;29;20036;-81
2022/03/11 03:55:28;;;;;;;7.05;3.88;;;6.40;32.40;;;;;;4914926;29;20043;-80
2022/03/11 03:57:54;;;;;;;7.70;3.67;;;6.40;32.30;;;;;;4917257;29;20059;-82
2022/03/11 04:00:20;;;;;;;8.30;4.38;;;6.40;32.30;;;;;;4918385;29;20056;-81
2022/03/11 04:02:50;;;;;;;7.63;4.10;;;6.40;32.40;;;;;;4886788;29;20107;-81
2022/03/11 04:05:18;;;;;;;8.35;3.47;;;6.40;32.50;;;;;;4902688;29;20032;-81
2022/03/11 04:07:47;;;;;;;6.15;3.65;;;6.40;32.40;;;;;;4917638;29;20028;-82
2022/03/11 04:10:21;;;;;;;7.30;4.05;;;6.40;32.40;;;;;;4903759;29;20044;-81
2022/03/11 04:12:47;;;;;;;7.18;3.30;;;6.30;32.40;;;;;;4892029;29;20488;-81
2022/03/11 04:15:13;;;;;;;8.57;3.55;;;6.30;32.50;;;;;;4901957;29;20032;-81
2022/03/11 04:17:39;;;;;;;8.60;3.35;;;6.30;32.50;;;;;;4918210;29;20064;-82
2022/03/11 04:20:06;;;;;;;8.20;3.50;;;6.30;32.50;;;;;;4901561;29;20040;-81
2022/03/11 04:22:33;;;;;;;6.22;3.42;;;6.40;32.50;;;;;;4915844;29;20056;-80
2022/03/11 04:24:59;;;;;;;7.50;3.63;;;6.40;32.40;;;;;;4903204;29;20047;-82
2022/03/11 04:27:25;;;;;;;7.10;3.40;;;6.40;32.40;;;;;;4904428;29;20032;-82
2022/03/11 04:29:50;;;;;;;5.45;3.28;;;6.50;32.30;;;;;;4902156;29;20036;-82
2022/03/11 04:32:18;;;;;;;6.95;3.67;;;6.50;32.90;;;;;;4902792;29;20401;-81
2022/03/11 04:34:47;;;;;;;6.30;3.35;;;6.60;32.20;;;;;;4918024;29;20047;-81
2022/03/11 04:37:13;;;;;;;9.52;3.80;;;6.60;32.20;;;;;;4885596;29;20044;-79
2022/03/11 04:39:39;;;;;;;7.28;4.07;;;6.60;32.20;;;;;;4902919;29;20127;-80
2022/03/11 04:42:09;;;;;;;5.38;3.45;;;6.60;32.20;;;;;;4902578;29;20039;-81
2022/03/11 04:44:35;;;;;;;5.25;3.45;;;6.60;32.10;;;;;;4934076;29;20032;-85
2022/03/11 04:47:01;;;;;;;7.60;3.80;;;6.60;32.10;;;;;;4903779;29;20049;-84
2022/03/11 04:49:27;;;;;;;6.57;3.30;;;6.60;32.10;;;;;;4920346;29;20040;-83
2022/03/11 04:51:53;;;;;;;6.63;3.28;;;6.60;32.20;;;;;;4902187;29;20044;-82
2022/03/11 04:54:19;;;;;;;6.20;3.30;;;6.60;32.20;;;;;;4900498;29;20037;-86
2022/03/11 04:56:45;;;;;;;7.00;3.47;;;6.60;32.20;;;;;;4917861;29;20059;-90
2022/03/11 04:59:11;;;;;;;7.10;3.50;;;6.60;32.20;;;;;;4919228;29;20075;-88
2022/03/11 05:01:37;;;;;;;5.50;3.22;;;6.60;32.20;;;;;;4938911;29;20037;-90
2022/03/11 05:04:03;;;;;;;6.05;3.38;;;6.60;32.10;;;;;;4910880;29;20044;-83
2022/03/11 05:06:29;;;;;;;5.25;3.22;;;6.60;32.10;;;;;;4898675;29;20036;-85
2022/03/11 05:08:54;;;;;;;4.68;3.05;;;6.50;31.90;;;;;;4915524;29;20040;-84
2022/03/11 05:11:21;;;;;;;4.90;2.90;;;6.50;31.90;;;;;;4902691;29;20041;-83
2022/03/11 05:13:47;;;;;;;6.80;3.22;;;6.50;31.90;;;;;;4938976;29;20076;-82
2022/03/11 05:16:13;;;;;;;5.60;3.28;;;6.50;31.90;;;;;;4947716;28;20425;-82
2022/03/11 05:18:39;;;;;;;7.05;3.33;;;6.50;32.00;;;;;;4910067;29;20036;-83
2022/03/11 05:21:05;;;;;;;6.28;3.20;;;6.50;31.90;;;;;;4896064;29;20041;-82
2022/03/11 05:23:31;;;;;;;5.07;2.92;;;6.50;31.90;;;;;;4932027;29;20037;-81
2022/03/11 05:25:57;;;;;;;7.15;3.17;;;6.50;31.90;;;;;;4901403;29;20124;-80
2022/03/11 05:28:25;;;;;;;5.22;3.03;;;6.60;31.90;;;;;;4884592;29;20047;-82
2022/03/11 05:30:51;;;;;;;5.28;2.78;;;6.60;31.80;;;;;;4902985;29;20036;-82
2022/03/11 05:33:20;;;;;;;5.50;3.28;;;6.70;31.80;;;;;;4902252;29;20024;-83
2022/03/11 05:35:46;;;;;;;7.38;3.30;;;6.70;31.80;;;;;;4901928;29;20044;-82
2022/03/11 05:38:12;;;;;;;6.72;3.00;;;6.80;31.80;;;;;;4901651;28;20532;-81
2022/03/11 05:40:37;;;;;;;5.47;3.00;;;6.90;31.80;;;;;;4901865;29;20413;-82
2022/03/11 05:43:04;;;;;;;5.90;2.80;;;7.10;31.80;;;;;;4901457;29;20044;-80
2022/03/11 05:45:30;;;;;;;6.63;3.20;;;7.20;31.70;;;;;;4930776;29;20036;-82
2022/03/11 05:47:56;;;;;;;7.28;2.90;;;7.40;31.80;;;;;;4917274;29;20042;-80
2022/03/11 05:50:22;;;;;;;4.22;3.05;;;7.50;31.70;;;;;;4917492;29;20103;-80
2022/03/11 05:52:49;;;;;;;8.10;2.75;;;7.70;31.80;;;;;;4918281;29;20036;-82
2022/03/11 05:55:15;;;;;;;6.75;3.22;;;7.90;38.60;;;;;;4891464;29;20040;-79
2022/03/11 05:57:41;;;;;;;6.20;3.13;;;8.10;38.60;;;;;;4901201;29;20037;-79
2022/03/11 06:00:08;;;;;;;9.52;5.28;;;8.20;35.80;;;;;;4917362;29;20543;-83
2022/03/11 06:02:40;;;;;;;16.13;7.82;;;8.30;33.90;;;;;;4901228;29;20568;-79
2022/03/11 06:05:09;;;;;;;21.98;12.00;;;8.30;32.80;;;;;;4915524;29;20036;-81
2022/03/11 06:07:36;;;;;;;21.60;11.93;;;8.40;32.30;;;;;;4929880;29;20416;-78
2022/03/11 06:10:02;;;;;;;16.75;9.30;;;8.50;31.90;;;;;;4932699;29;20089;-81
2022/03/11 06:12:28;;;;;;;21.33;8.10;;;8.60;31.70;;;;;;4900810;29;20031;-80
2022/03/11 06:14:54;;;;;;;15.48;6.53;;;8.70;31.30;;;;;;4899823;29;20404;-80
2022/03/11 06:17:20;;;;;;;13.52;5.82;;;8.80;31.70;;;;;;4931661;29;20035;-80
2022/03/11 06:19:46;;;;;;;15.68;6.78;;;8.90;30.80;;;;;;4930067;28;20044;-80
2022/03/11 06:22:12;;;;;;;9.93;4.70;;;9.00;30.60;;;;;;4901747;29;20484;-81
2022/03/11 06:24:38;;;;;;;11.02;5.13;;;9.10;30.50;;;;;;4901001;29;20051;-80
2022/03/11 06:27:04;;;;;;;13.07;4.57;;;9.20;30.40;;;;;;4883954;29;20037;-80
2022/03/11 06:29:29;;;;;;;7.32;3.75;;;9.30;30.40;;;;;;4914568;29;20516;-79
2022/03/11 06:31:55;;;;;;;6.50;3.67;;;9.50;30.40;;;;;;4899721;29;20044;-79
2022/03/11 06:34:22;;;;;;;9.07;3.75;;;9.60;30.20;;;;;;4900969;29;20060;-81
2022/03/11 06:36:48;;;;;;;7.43;3.58;;;9.70;30.00;;;;;;4904365;29;20044;-81
2022/03/11 06:39:14;;;;;;;8.95;3.75;;;9.80;30.00;;;;;;4901338;29;20531;-81
2022/03/11 06:41:43;;;;;;;9.32;3.22;;;9.90;29.70;;;;;;4898768;29;20036;-79
2022/03/11 06:44:09;;;;;;;7.65;3.38;;;9.90;29.60;;;;;;4900933;29;20044;-79
2022/03/11 06:46:35;;;;;;;17.42;3.40;;;10.00;29.50;;;;;;4882598;29;20044;-80
2022/03/11 06:49:01;;;;;;;6.00;3.03;;;10.10;29.50;;;;;;4901626;29;20107;-81
2022/03/11 06:51:27;;;;;;;4.90;2.95;;;10.10;29.30;;;;;;4899735;29;20456;-81
2022/03/11 06:53:52;;;;;;;5.47;3.13;;;10.20;29.30;;;;;;4931292;29;20067;-78
2022/03/11 06:56:18;;;;;;;7.05;3.00;;;10.30;29.40;;;;;;4932194;29;20040;-81
2022/03/11 06:58:44;;;;;;;5.18;3.30;;;10.30;29.10;;;;;;4899925;29;20029;-81
2022/03/11 07:01:10;;;;;;;4.63;2.85;;;10.40;29.10;;;;;;4886471;29;20040;-81
2022/03/11 07:03:36;;;;;;;7.53;3.10;;;10.50;29.00;;;;;;4900510;29;20038;-80
2022/03/11 07:06:06;;;;;;;4.20;2.80;;;10.50;29.10;;;;;;4899539;29;20055;-81
2022/03/11 07:08:32;;;;;;;5.78;2.88;;;10.60;29.10;;;;;;4899129;29;20127;-79
2022/03/11 07:10:59;;;;;;;5.35;2.78;;;10.60;29.20;;;;;;4930826;29;20120;-81
2022/03/11 07:13:24;;;;;;;5.20;2.40;;;10.70;29.20;;;;;;4898523;29;20032;-81
2022/03/11 07:15:50;;;;;;;5.93;2.85;;;10.80;29.20;;;;;;4929613;29;20047;-80
2022/03/11 07:18:16;;;;;;;8.38;2.67;;;10.90;29.10;;;;;;4914372;29;20032;-80
2022/03/11 07:20:42;;;;;;;6.32;2.60;;;10.90;28.80;;;;;;4913169;29;20043;-80
2022/03/11 07:23:08;;;;;;;6.05;2.92;;;11.00;28.90;;;;;;4898676;29;20082;-81
2022/03/11 07:25:36;;;;;;;20.77;8.43;;;11.00;28.70;;;;;;4900666;29;20032;-80
2022/03/11 07:28:02;;;;;;;15.25;7.95;;;11.10;28.70;;;;;;4928744;29;20074;-81
2022/03/11 07:30:28;;;;;;;15.00;7.32;;;11.10;28.70;;;;;;4900574;29;20111;-79
2022/03/11 07:32:54;;;;;;;14.02;7.00;;;11.20;29.30;;;;;;4899755;29;20643;-79
2022/03/11 07:35:20;;;;;;;14.77;8.15;;;11.40;30.60;;;;;;4899424;29;20116;-79
2022/03/11 07:37:46;;;;;;;14.23;7.93;;;11.50;31.10;;;;;;4901097;29;20036;-78
2022/03/11 07:40:17;;;;;;;15.65;7.53;;;11.60;31.10;;;;;;4898641;29;20415;-79
2022/03/11 07:42:44;;;;;;;15.93;6.38;;;11.70;31.30;;;;;;4897209;29;20409;-78
2022/03/11 07:45:13;;;;;;;13.68;5.50;;;11.80;31.00;;;;;;4898620;29;20160;-78
2022/03/11 07:47:41;;;;;;;10.90;4.82;;;11.90;30.90;;;;;;4914040;29;20132;-77
2022/03/11 07:50:10;;;;;;;8.60;4.10;;;11.90;30.80;;;;;;4902083;29;20424;-80
2022/03/11 07:52:40;;;;;;;11.43;4.35;;;12.00;30.90;;;;;;4875217;29;20041;-79
2022/03/11 07:55:08;;;;;;;5.85;3.65;;;12.00;30.70;;;;;;4899388;29;20032;-78
2022/03/11 07:57:36;;;;;;;9.43;3.40;;;12.10;30.70;;;;;;4898166;29;20036;-80
2022/03/11 08:00:10;;;;;;;8.52;3.40;;;12.10;30.80;;;;;;4901277;29;20056;-79
2022/03/11 08:02:40;;;;;;;6.07;3.03;;;12.10;29.90;;;;;;4913677;29;20511;-79
2022/03/11 08:05:06;;;;;;;8.80;3.83;;;12.10;29.40;;;;;;4899652;29;20498;-78
2022/03/11 08:07:34;;;;;;;7.68;3.22;;;12.10;29.10;;;;;;4897993;29;20048;-79
2022/03/11 08:10:00;;;;;;;6.82;3.42;;;12.10;29.00;;;;;;4913539;29;20036;-79
2022/03/11 08:12:26;;;;;;;7.53;3.40;;;12.00;28.80;;;;;;4914086;29;20504;-77
2022/03/11 08:14:52;;;;;;;8.65;4.43;;;12.00;28.90;;;;;;4926533;29;20064;-79
2022/03/11 08:17:18;;;;;;;8.15;4.35;;;11.90;28.90;;;;;;4911378;29;20067;-78
2022/03/11 08:19:44;;;;;;;9.43;4.68;;;11.90;29.00;;;;;;4898037;29;20429;-79
2022/03/11 08:22:12;;;;;;;11.13;4.85;;;11.80;28.90;;;;;;4898746;29;20072;-80
2022/03/11 08:24:39;;;;;;;10.45;4.30;;;11.70;28.90;;;;;;4899654;29;20534;-80
2022/03/11 08:27:11;;;;;;;10.95;4.78;;;11.70;29.00;;;;;;4898581;29;20484;-79
2022/03/11 08:29:37;;;;;;;9.52;4.90;;;11.60;29.00;;;;;;4898458;29;20059;-78
2022/03/11 08:32:04;;;;;;;11.63;4.80;;;11.50;28.90;;;;;;4895931;29;20111;-80
2022/03/11 08:34:30;;;;;;;16.88;5.13;;;11.40;29.00;;;;;;4902303;29;20040;-79
2022/03/11 08:36:56;;;;;;;11.48;5.70;;;11.30;29.00;;;;;;4896936;29;20043;-78
2022/03/11 08:39:22;;;;;;;16.60;5.18;;;11.20;29.10;;;;;;4899199;29;20468;-79
2022/03/11 08:41:48;;;;;;;13.73;5.75;;;11.20;29.30;;;;;;4872144;29;20044;-80
2022/03/11 08:44:14;;;;;;;9.00;5.10;;;11.10;29.40;;;;;;4931914;29;20040;-79
2022/03/11 08:46:41;;;;;;;22.65;5.72;;;11.10;29.50;;;;;;4902561;29;20135;-80
2022/03/11 08:49:07;;;;;;;11.15;4.97;;;11.10;29.60;;;;;;4903894;29;20100;-78
2022/03/11 08:51:33;;;;;;;7.57;4.55;;;11.10;30.00;;;;;;4900797;29;20050;-81
2022/03/11 08:53:59;;;;;;;7.78;4.38;;;11.10;31.60;;;;;;4933766;29;20040;-84
2022/03/11 08:56:25;;;;;;;6.35;3.78;;;11.20;32.70;;;;;;4901274;29;20043;-81
2022/03/11 08:58:51;;;;;;;7.90;4.72;;;11.20;33.30;;;;;;4915769;29;20620;-84
2022/03/11 09:01:18;;;;;;;9.75;4.60;;;11.30;33.50;;;;;;4919492;29;20039;-83
2022/03/11 09:03:44;;;;;;;11.30;4.05;;;11.30;33.30;;;;;;4904238;29;20448;-80
2022/03/11 09:06:10;;;;;;;9.30;3.90;;;11.40;34.10;;;;;;4901936;29;20063;-79
2022/03/11 09:08:36;;;;;;;8.13;3.70;;;11.40;37.40;;;;;;4903407;29;20040;-78
2022/03/11 09:11:02;;;;;;;7.07;3.20;;;11.60;40.50;;;;;;4903372;29;20037;-80
2022/03/11 09:13:28;;;;;;;6.53;3.22;;;11.80;40.60;;;;;;4901820;29;20067;-82
2022/03/11 09:15:54;;;;;;;6.60;3.40;;;11.80;39.80;;;;;;4902133;29;20111;-81
2022/03/11 09:18:20;;;;;;;7.40;3.35;;;11.90;39.10;;;;;;4902525;29;20036;-81
2022/03/11 09:20:47;;;;;;;10.35;4.00;;;11.90;38.50;;;;;;4901275;29;20056;-80
2022/03/11 09:23:13;;;;;;;6.78;3.80;;;11.90;38.10;;;;;;4900385;29;20065;-80
2022/03/11 09:25:39;;;;;;;6.53;3.33;;;11.90;37.70;;;;;;4902058;29;20135;-80
2022/03/11 09:28:06;;;;;;;8.82;4.20;;;11.90;37.40;;;;;;4901508;29;20615;-80
2022/03/11 09:30:34;;;;;;;9.93;3.92;;;11.90;37.10;;;;;;4899571;29;20543;-79
2022/03/11 09:33:00;;;;;;;8.93;3.47;;;11.90;36.90;;;;;;4900844;29;20040;-79
2022/03/11 09:35:26;;;;;;;10.15;3.47;;;11.80;36.70;;;;;;4900159;29;20036;-79
2022/03/11 09:37:52;;;;;;;12.13;4.30;;;11.90;36.60;;;;;;4899678;29;20041;-79
2022/03/11 09:40:18;;;;;;;4.75;3.25;;;11.90;36.40;;;;;;4898669;29;20195;-80
2022/03/11 09:42:45;;;;;;;7.65;3.92;;;11.90;36.20;;;;;;4914565;29;20028;-80
2022/03/11 09:45:11;;;;;;;6.20;3.10;;;11.90;35.90;;;;;;4898411;29;20606;-81
2022/03/11 09:47:39;;;;;;;7.00;3.60;;;11.80;35.50;;;;;;4898592;29;20044;-80
2022/03/11 09:50:06;;;;;;;10.68;3.63;;;11.90;35.40;;;;;;4929753;29;20067;-80
2022/03/11 09:52:33;;;;;;;7.97;3.38;;;11.80;35.20;;;;;;4912874;29;20040;-80
2022/03/11 09:55:00;;;;;;;10.85;4.35;;;11.80;35.00;;;;;;4889053;29;20412;-80
2022/03/11 09:57:27;;;;;;;6.40;3.45;;;11.80;34.90;;;;;;4898050;29;20111;-80
2022/03/11 09:59:56;;;;;;;7.32;3.45;;;11.80;34.90;;;;;;4930655;29;20083;-79
2022/03/11 10:02:22;;;;;;;8.30;3.85;;;11.90;34.80;;;;;;4898563;29;20033;-80
2022/03/11 10:04:52;;;;;;;7.68;4.53;;;11.80;34.40;;;;;;4870892;29;20039;-81
2022/03/11 10:07:29;;;;;;;8.45;3.78;;;11.80;34.10;;;;;;4904134;29;20115;-81
2022/03/11 10:09:57;;;;;;;8.30;4.22;;;11.80;33.90;;;;;;4902856;29;20059;-79
2022/03/11 10:12:28;;;;;;;9.57;4.43;;;11.80;34.20;;;;;;4899522;29;20508;-80
2022/03/11 10:15:00;;;;;;;10.00;3.70;;;11.80;34.00;;;;;;4901303;29;20068;-79
2022/03/11 10:17:27;;;;;;;6.13;3.65;;;11.80;33.70;;;;;;4904376;29;20423;-79
2022/03/11 10:20:02;;;;;;;10.63;3.97;;;11.80;33.40;;;;;;4899387;29;20044;-80
2022/03/11 10:22:29;;;;;;;10.35;3.60;;;11.80;33.20;;;;;;4883739;29;20036;-80
2022/03/11 10:24:56;;;;;;;12.85;4.40;;;11.80;33.10;;;;;;4900780;29;20028;-79
2022/03/11 10:27:23;;;;;;;10.05;3.83;;;11.80;33.00;;;;;;4900804;29;20032;-79
2022/03/11 10:29:51;;;;;;;7.20;3.10;;;11.80;32.70;;;;;;4915126;29;20059;-80
2022/03/11 10:32:26;;;;;;;11.13;3.58;;;11.70;32.70;;;;;;4899656;29;20104;-81
2022/03/11 10:34:52;;;;;;;6.50;3.15;;;11.70;32.50;;;;;;4882687;29;20039;-79
2022/03/11 10:37:19;;;;;;;7.07;3.10;;;11.70;32.50;;;;;;4931474;29;20120;-78
2022/03/11 10:39:47;;;;;;;6.65;3.30;;;11.70;32.30;;;;;;4904069;29;20512;-80
2022/03/11 10:42:15;;;;;;;6.47;3.30;;;11.70;32.90;;;;;;4899590;29;20036;-80
2022/03/11 10:44:54;;;;;;;8.48;3.60;;;11.70;32.50;;;;;;4913369;29;20187;-80
2022/03/11 10:47:22;;;;;;;10.50;3.67;;;11.60;32.30;;;;;;4896351;29;20050;-80
2022/03/11 10:49:54;;;;;;;10.23;3.85;;;11.60;32.40;;;;;;4931484;29;20036;-79
2022/03/11 10:52:36;;;;;;;6.10;3.53;;;11.60;32.50;;;;;;4898133;29;20135;-80
2022/03/11 10:55:18;;;;;;;6.50;3.67;;;11.60;32.60;;;;;;4899428;29;20473;-80
2022/03/11 10:57:45;;;;;;;9.15;3.85;;;11.60;32.70;;;;;;4897007;29;20063;-81
2022/03/11 11:00:25;;;;;;;8.10;3.70;;;11.50;32.80;;;;;;4914126;29;20059;-80
2022/03/11 11:02:56;;;;;;;8.55;4.00;;;11.50;32.80;;;;;;4898775;29;20039;-80
2022/03/11 11:05:23;;;;;;;9.35;3.50;;;11.50;32.80;;;;;;4898623;29;20028;-80
2022/03/11 11:07:50;;;;;;;7.70;3.70;;;11.50;32.70;;;;;;4899193;29;20087;-80
2022/03/11 11:10:18;;;;;;;7.50;4.13;;;11.50;32.70;;;;;;4904224;29;20043;-79
2022/03/11 11:12:45;;;;;;;9.10;4.25;;;11.50;33.00;;;;;;4900463;29;20028;-79
2022/03/11 11:15:12;;;;;;;10.63;4.80;;;11.40;33.10;;;;;;4918357;29;20535;-81
2022/03/11 11:17:40;;;;;;;8.60;4.50;;;11.40;33.00;;;;;;4890528;29;20048;-80
2022/03/11 11:20:30;;;;;;;10.63;5.15;;;11.40;32.90;;;;;;4878035;29;20504;-79
2022/03/11 11:22:57;;;;;;;12.90;5.63;;;11.40;33.00;;;;;;4883767;29;20136;-80
2022/03/11 11:25:24;;;;;;;13.05;5.35;;;11.40;33.10;;;;;;4886343;29;20044;-80
2022/03/11 11:27:53;;;;;;;10.40;4.65;;;11.40;33.20;;;;;;4898850;29;20040;-80
2022/03/11 11:30:21;;;;;;;9.27;4.60;;;11.40;33.10;;;;;;4897857;29;20041;-80
2022/03/11 11:32:52;;;;;;;9.02;5.00;;;11.40;33.20;;;;;;4928127;29;20448;-80
2022/03/11 11:35:34;;;;;;;9.23;4.72;;;11.40;33.20;;;;;;4886176;29;20029;-80
2022/03/11 11:38:07;;;;;;;8.88;4.30;;;11.40;33.30;;;;;;4895923;29;20029;-80
2022/03/11 11:40:47;;;;;;;10.73;4.88;;;11.30;33.10;;;;;;4911404;29;20064;-80
2022/03/11 11:43:28;;;;;;;10.57;4.63;;;11.30;33.00;;;;;;4895558;29;20064;-81
2022/03/11 11:46:03;;;;;;;8.32;4.40;;;11.30;32.80;;;;;;4882943;29;20040;-80
2022/03/11 11:48:45;;;;;;;7.05;4.32;;;11.30;32.80;;;;;;4897230;29;20021;-81
2022/03/11 11:51:43;;;;;;;7.55;4.45;;;11.30;32.80;;;;;;4914085;29;20059;-79
2022/03/11 11:54:11;;;;;;;12.13;4.00;;;11.30;32.80;;;;;;4898850;29;20048;-79
2022/03/11 11:56:52;;;;;;;8.27;4.32;;;11.30;33.10;;;;;;4899291;29;20187;-79
2022/03/11 11:59:26;;;;;;;6.60;3.78;;;11.30;33.10;;;;;;4898608;29;20044;-80
2022/03/11 12:01:57;;;;;;;9.98;3.53;;;11.30;33.00;;;;;;4912393;29;20484;-80
2022/03/11 12:04:34;;;;;;;10.05;4.20;;;11.20;33.00;;;;;;4898959;29;20061;-80
2022/03/11 12:07:04;;;;;;;8.88;4.45;;;11.20;33.10;;;;;;4899403;29;20407;-79
2022/03/11 12:09:58;;;;;;;9.55;4.40;;;11.20;33.20;;;;;;4899614;29;21415;-79
2022/03/11 12:12:33;;;;;;;7.90;3.97;;;11.20;33.10;;;;;;4914099;29;20131;-79
2022/03/11 12:17:44;;;;;;;7.28;4.05;;;11.20;33.10;;;;;;4899390;29;20120;-79
2022/03/11 12:20:32;;;;;;;11.48;4.00;;;11.20;33.10;;;;;;4920782;29;20033;-79
2022/03/11 12:23:12;;;;;;;7.57;4.07;;;11.10;32.90;;;;;;4904019;29;20459;-80
2022/03/11 12:25:57;;;;;;;8.65;3.80;;;11.10;32.80;;;;;;4902978;29;20048;-79
2022/03/11 12:28:33;;;;;;;6.75;3.65;;;11.10;32.70;;;;;;4886360;29;20093;-81
2022/03/11 12:31:04;;;;;;;7.65;3.70;;;11.10;32.80;;;;;;4901606;29;20043;-80
2022/03/11 12:33:40;;;;;;;6.82;3.55;;;11.10;32.70;;;;;;4901570;29;20040;-80
2022/03/11 12:36:27;;;;;;;6.18;3.03;;;11.10;32.90;;;;;;4902117;29;20580;-79
2022/03/11 12:38:54;;;;;;;7.57;3.55;;;11.10;32.80;;;;;;4899986;29;20052;-80
2022/03/11 12:41:28;;;;;;;5.65;3.25;;;11.10;32.90;;;;;;4901851;29;20040;-80
2022/03/11 12:43:58;;;;;;;4.82;3.08;;;11.00;32.70;;;;;;4917428;29;20603;-81
2022/03/11 12:46:24;;;;;;;10.43;3.20;;;11.10;32.70;;;;;;4932865;29;20134;-80
2022/03/11 12:48:50;;;;;;;8.02;3.42;;;11.10;32.70;;;;;;4902536;29;21403;-80
2022/03/11 12:51:18;;;;;;;5.63;3.30;;;11.10;32.60;;;;;;4903176;29;20431;-80
2022/03/11 12:53:47;;;;;;;7.95;3.03;;;11.00;32.60;;;;;;4902634;28;20520;-81
2022/03/11 12:56:13;;;;;;;4.75;2.95;;;11.00;32.50;;;;;;4916002;29;20160;-80